createdAt,value
2018-03-23T00:01:02.964Z,91.70
2018-03-23T00:03:31.261Z,91.70
2018-03-23T00:05:59.579Z,91.70
2018-03-23T00:08:27.872Z,91.70
2018-03-23T00:10:56.172Z,91.70
2018-03-23T00:13:24.493Z,91.80
2018-03-23T00:15:52.788Z,91.90
2018-03-23T00:18:21.113Z,91.90
2018-03-23T00:20:49.457Z,91.90
2018-03-23T00:23:17.774Z,91.90
2018-03-23T00:25:46.072Z,91.90
2018-03-23T00:28:14.384Z,92.00
2018-03-23T00:30:42.676Z,92.00
2018-03-23T00:33:10.989Z,92.00
2018-03-23T00:35:39.290Z,92.10
2018-03-23T00:38:07.612Z,92.10
2018-03-23T00:40:35.906Z,92.20
2018-03-23T00:43:04.233Z,92.20
2018-03-23T00:45:32.543Z,92.20
2018-03-23T00:48:00.860Z,92.20
2018-03-23T00:50:29.173Z,92.20
2018-03-23T00:52:57.499Z,92.30
2018-03-23T00:55:25.798Z,92.20
2018-03-23T00:57:54.126Z,92.20
2018-03-23T01:00:22.429Z,92.20
2018-03-23T01:02:50.748Z,92.20
2018-03-23T01:05:19.040Z,92.30
2018-03-23T01:07:47.373Z,92.40
2018-03-23T01:10:15.676Z,92.50
2018-03-23T01:12:43.987Z,92.40
2018-03-23T01:15:12.297Z,92.40
2018-03-23T01:17:40.608Z,92.30
2018-03-23T01:20:08.912Z,92.30
2018-03-23T01:22:41.256Z,92.40
2018-03-23T01:25:09.556Z,92.40
2018-03-23T01:27:37.873Z,92.40
2018-03-23T01:30:06.164Z,92.50
2018-03-23T01:32:34.484Z,92.50
2018-03-23T01:35:02.776Z,92.90
2018-03-23T01:37:31.091Z,92.50
2018-03-23T01:39:59.385Z,92.50
2018-03-23T01:42:27.701Z,92.50
2018-03-23T01:44:55.993Z,92.60
2018-03-23T01:47:24.295Z,92.60
2018-03-23T01:49:52.588Z,92.60
2018-03-23T01:52:20.900Z,92.80
2018-03-23T01:54:49.200Z,92.60
2018-03-23T01:57:17.578Z,93.00
2018-03-23T01:59:45.858Z,92.60
2018-03-23T02:02:14.144Z,92.60
2018-03-23T02:04:42.464Z,92.50
2018-03-23T02:07:10.756Z,92.50
2018-03-23T02:09:39.080Z,92.60
2018-03-23T02:12:07.377Z,92.70
2018-03-23T02:14:35.692Z,92.70
2018-03-23T02:17:03.984Z,92.70
2018-03-23T02:19:32.305Z,92.80
2018-03-23T02:22:00.612Z,92.80
2018-03-23T02:24:28.932Z,92.80
2018-03-23T02:26:57.224Z,92.80
2018-03-23T02:29:25.535Z,92.90
2018-03-23T02:31:53.836Z,93.00
2018-03-23T02:34:22.153Z,93.00
2018-03-23T02:36:50.444Z,93.00
2018-03-23T02:39:18.758Z,93.00
2018-03-23T02:41:47.062Z,93.00
2018-03-23T02:44:15.376Z,93.00
2018-03-23T02:46:43.669Z,93.10
2018-03-23T02:49:12.095Z,93.50
2018-03-23T02:51:40.426Z,93.10
2018-03-23T02:54:08.772Z,93.10
2018-03-23T02:56:37.146Z,93.10
2018-03-23T02:59:05.501Z,93.10
2018-03-23T03:01:33.820Z,93.20
2018-03-23T03:04:02.149Z,93.20
2018-03-23T03:06:30.453Z,93.20
2018-03-23T03:08:58.780Z,93.30
2018-03-23T03:11:27.079Z,93.40
2018-03-23T03:13:55.397Z,93.30
2018-03-23T03:16:23.697Z,93.30
2018-03-23T03:18:52.013Z,93.30
2018-03-23T03:21:20.329Z,93.30
2018-03-23T03:23:48.661Z,93.20
2018-03-23T03:26:16.960Z,93.10
2018-03-23T03:28:45.274Z,93.10
2018-03-23T03:31:13.580Z,93.10
2018-03-23T03:33:41.917Z,93.00
2018-03-23T03:36:11.425Z,92.90
2018-03-23T03:38:39.751Z,92.90
2018-03-23T03:41:08.044Z,92.80
2018-03-23T03:43:36.372Z,92.70
2018-03-23T03:46:04.680Z,93.00
2018-03-23T03:48:32.976Z,92.60
2018-03-23T03:51:01.300Z,92.60
2018-03-23T03:53:29.604Z,92.60
2018-03-23T03:55:57.925Z,92.60
2018-03-23T03:58:26.221Z,92.50
2018-03-23T04:00:54.642Z,92.40
2018-03-23T04:03:23.057Z,92.40
2018-03-23T04:05:51.459Z,92.40
2018-03-23T04:08:19.752Z,92.40
2018-03-23T04:10:48.060Z,92.40
2018-03-23T04:13:16.359Z,92.50
2018-03-23T04:15:44.680Z,92.50
2018-03-23T04:18:12.500Z,92.50
2018-03-23T04:20:40.335Z,92.50
2018-03-23T04:23:08.151Z,92.40
2018-03-23T04:25:36.001Z,92.40
2018-03-23T04:28:03.834Z,92.30
2018-03-23T04:30:31.675Z,92.20
2018-03-23T04:32:59.964Z,92.20
2018-03-23T04:35:27.804Z,92.10
2018-03-23T04:37:55.628Z,92.00
2018-03-23T04:40:23.941Z,91.90
2018-03-23T04:42:52.236Z,91.80
2018-03-23T04:45:20.544Z,91.70
2018-03-23T04:47:48.384Z,91.70
2018-03-23T04:50:16.709Z,91.60
2018-03-23T04:52:45.009Z,91.50
2018-03-23T04:55:13.329Z,91.50
2018-03-23T04:57:41.625Z,91.50
2018-03-23T05:00:09.939Z,91.40
2018-03-23T05:02:38.237Z,91.30
2018-03-23T05:05:06.085Z,91.30
2018-03-23T05:07:33.913Z,91.30
2018-03-23T05:10:01.776Z,91.40
2018-03-23T05:12:29.598Z,91.40
2018-03-23T05:14:57.431Z,91.40
2018-03-23T05:17:25.728Z,91.40
2018-03-23T05:19:54.051Z,91.40
2018-03-23T05:22:21.883Z,91.50
2018-03-23T05:24:50.202Z,91.50
2018-03-23T05:27:18.505Z,91.60
2018-03-23T05:29:46.796Z,91.60
2018-03-23T05:32:15.112Z,91.60
2018-03-23T05:34:43.419Z,91.60
2018-03-23T05:37:11.736Z,91.50
2018-03-23T05:39:39.571Z,91.60
2018-03-23T05:42:11.453Z,91.60
2018-03-23T05:44:39.267Z,91.60
2018-03-23T05:47:07.588Z,91.50
2018-03-23T05:49:35.879Z,91.50
2018-03-23T05:52:04.238Z,91.40
2018-03-23T05:54:32.504Z,91.30
2018-03-23T05:57:00.828Z,91.20
2018-03-23T05:59:29.128Z,91.20
2018-03-23T06:01:57.432Z,91.10
2018-03-23T06:04:25.281Z,91.00
2018-03-23T06:06:53.594Z,91.00
2018-03-23T06:09:21.907Z,90.90
2018-03-23T06:11:50.223Z,90.90
2018-03-23T06:14:18.512Z,90.90
2018-03-23T06:16:46.824Z,90.80
2018-03-23T06:19:15.104Z,90.70
2018-03-23T06:21:43.419Z,90.80
2018-03-23T06:24:11.236Z,90.70
2018-03-23T06:26:39.076Z,90.80
2018-03-23T06:29:06.891Z,90.30
2018-03-23T06:31:34.728Z,90.30
2018-03-23T06:34:02.552Z,90.40
2018-03-23T06:36:30.396Z,90.20
2018-03-23T06:38:58.683Z,90.20
2018-03-23T06:41:27.010Z,90.10
2018-03-23T06:43:55.298Z,90.00
2018-03-23T06:46:23.609Z,89.70
2018-03-23T06:48:51.440Z,89.20
2018-03-23T06:51:19.285Z,89.20
2018-03-23T06:53:47.575Z,88.90
2018-03-23T06:56:15.900Z,88.80
2018-03-23T06:58:44.194Z,88.40
2018-03-23T07:01:12.508Z,88.00
2018-03-23T07:03:40.825Z,87.40
2018-03-23T07:06:09.119Z,86.90
2018-03-23T07:08:37.437Z,86.50
2018-03-23T07:11:05.732Z,85.70
2018-03-23T07:13:34.052Z,85.40
2018-03-23T07:16:02.356Z,85.10
2018-03-23T07:18:30.678Z,84.70
2018-03-23T07:20:58.971Z,83.40
2018-03-23T07:23:27.302Z,83.10
2018-03-23T07:25:55.131Z,82.50
2018-03-23T07:28:22.971Z,82.10
2018-03-23T07:30:50.788Z,81.90
2018-03-23T07:33:19.113Z,82.00
2018-03-23T07:35:47.407Z,81.90
2018-03-23T07:38:15.735Z,81.70
2018-03-23T07:40:43.560Z,81.30
2018-03-23T07:43:11.412Z,81.00
2018-03-23T07:45:39.703Z,80.40
2018-03-23T07:48:07.563Z,79.90
2018-03-23T07:50:35.585Z,79.50
2018-03-23T07:53:03.924Z,79.20
2018-03-23T07:55:31.747Z,78.60
2018-03-23T07:58:00.069Z,78.50
2018-03-23T08:00:28.373Z,78.30
2018-03-23T08:02:56.695Z,77.80
2018-03-23T08:05:25.000Z,78.50
2018-03-23T08:07:53.323Z,77.60
2018-03-23T08:10:21.625Z,76.80
2018-03-23T08:12:49.944Z,76.90
2018-03-23T08:15:18.240Z,76.70
2018-03-23T08:17:46.556Z,76.10
2018-03-23T08:20:14.852Z,76.40
2018-03-23T08:22:43.181Z,76.10
2018-03-23T08:25:11.476Z,74.70
2018-03-23T08:27:39.796Z,73.80
2018-03-23T08:30:08.094Z,73.20
2018-03-23T08:32:36.421Z,73.30
2018-03-23T08:35:04.724Z,72.90
2018-03-23T08:37:33.060Z,72.60
2018-03-23T08:40:01.365Z,71.70
2018-03-23T08:42:29.665Z,70.60
2018-03-23T08:44:57.980Z,70.20
2018-03-23T08:47:26.292Z,70.10
2018-03-23T08:49:54.610Z,70.00
2018-03-23T08:52:22.912Z,70.30
2018-03-23T08:54:51.220Z,69.80
2018-03-23T08:57:19.525Z,68.80
2018-03-23T08:59:47.837Z,69.00
2018-03-23T09:02:16.140Z,68.60
2018-03-23T09:04:44.454Z,68.60
2018-03-23T09:07:12.752Z,69.30
2018-03-23T09:09:41.079Z,69.20
2018-03-23T09:12:09.380Z,68.30
2018-03-23T09:14:37.693Z,68.20
2018-03-23T09:17:05.993Z,67.20
2018-03-23T09:19:34.303Z,67.10
2018-03-23T09:22:02.587Z,67.20
2018-03-23T09:24:30.911Z,66.00
2018-03-23T09:26:59.196Z,64.90
2018-03-23T09:29:27.516Z,65.60
2018-03-23T09:31:55.813Z,66.20
2018-03-23T09:34:24.128Z,66.30
2018-03-23T09:36:52.416Z,66.20
2018-03-23T09:39:20.728Z,66.20
2018-03-23T09:41:49.027Z,64.50
2018-03-23T09:44:17.347Z,64.40
2018-03-23T09:46:45.647Z,64.40
2018-03-23T09:49:13.956Z,64.40
2018-03-23T09:51:42.260Z,64.60
2018-03-23T09:54:10.577Z,64.50
2018-03-23T09:56:38.875Z,64.40
2018-03-23T09:59:07.187Z,64.70
2018-03-23T10:01:35.488Z,64.50
2018-03-23T10:04:03.870Z,64.00
2018-03-23T10:06:32.120Z,63.90
2018-03-23T10:09:00.441Z,64.30
2018-03-23T10:11:28.723Z,65.20
2018-03-23T10:13:57.029Z,65.90
2018-03-23T10:16:25.320Z,66.20
2018-03-23T10:18:53.628Z,66.10
2018-03-23T10:21:21.947Z,65.50
2018-03-23T10:23:50.256Z,65.50
2018-03-23T10:26:18.567Z,66.00
2018-03-23T10:28:46.885Z,64.90
2018-03-23T10:31:15.218Z,66.10
2018-03-23T10:33:43.513Z,66.10
2018-03-23T10:36:11.832Z,67.20
2018-03-23T10:38:40.147Z,68.20
2018-03-23T10:41:08.464Z,68.50
2018-03-23T10:43:36.768Z,69.20
2018-03-23T10:46:05.082Z,69.40
2018-03-23T10:48:33.380Z,69.80
2018-03-23T10:51:01.693Z,70.30
2018-03-23T10:53:30.037Z,71.00
2018-03-23T10:55:58.341Z,70.70
2018-03-23T10:58:26.632Z,70.00
2018-03-23T11:01:00.757Z,69.40
2018-03-23T11:03:29.060Z,69.50
2018-03-23T11:05:57.381Z,70.20
2018-03-23T11:08:25.681Z,70.60
2018-03-23T11:10:53.991Z,70.80
2018-03-23T11:13:22.276Z,70.60
2018-03-23T11:15:50.587Z,70.80
2018-03-23T11:18:18.901Z,69.70
2018-03-23T11:20:47.230Z,69.40
2018-03-23T11:23:15.532Z,70.00
2018-03-23T11:25:43.852Z,70.10
2018-03-23T11:28:12.140Z,70.50
2018-03-23T11:30:40.460Z,70.30
2018-03-23T11:33:08.752Z,69.30
2018-03-23T11:35:37.072Z,69.70
2018-03-23T11:38:05.376Z,70.10
2018-03-23T11:40:33.690Z,70.40
2018-03-23T11:43:01.978Z,71.00
2018-03-23T11:45:30.292Z,70.90
2018-03-23T11:47:58.594Z,71.20
2018-03-23T11:50:26.907Z,71.80
2018-03-23T11:52:55.216Z,72.40
2018-03-23T11:55:23.536Z,72.80
2018-03-23T11:57:51.832Z,73.00
2018-03-23T12:00:20.148Z,73.10
2018-03-23T12:02:48.441Z,72.50
2018-03-23T12:05:16.732Z,72.70
2018-03-23T12:07:45.056Z,72.30
2018-03-23T12:10:13.356Z,72.30
2018-03-23T12:12:41.694Z,72.80
2018-03-23T12:15:09.981Z,72.10
2018-03-23T12:17:38.298Z,72.50
2018-03-23T12:20:06.584Z,72.60
2018-03-23T12:22:34.903Z,72.40
2018-03-23T12:25:03.207Z,72.90
2018-03-23T12:27:31.572Z,73.00
2018-03-23T12:29:59.858Z,73.30
2018-03-23T12:32:28.196Z,73.80
2018-03-23T12:34:56.500Z,74.00
2018-03-23T12:37:24.845Z,73.40
2018-03-23T12:39:53.143Z,73.30
2018-03-23T12:42:21.455Z,73.00
2018-03-23T12:44:49.744Z,72.80
2018-03-23T12:47:18.063Z,72.00
2018-03-23T12:49:46.364Z,72.80
2018-03-23T12:52:14.680Z,73.10
2018-03-23T12:54:42.980Z,73.00
2018-03-23T12:57:11.299Z,73.10
2018-03-23T12:59:39.610Z,73.00
2018-03-23T13:02:07.924Z,73.20
2018-03-23T13:04:36.216Z,72.50
2018-03-23T13:07:04.536Z,72.60
2018-03-23T13:09:32.838Z,73.30
2018-03-23T13:12:01.153Z,74.00
2018-03-23T13:14:29.452Z,73.50
2018-03-23T13:16:57.765Z,73.30
2018-03-23T13:19:26.068Z,72.20
2018-03-23T13:21:54.708Z,72.10
2018-03-23T13:24:23.015Z,72.50
2018-03-23T13:26:51.336Z,72.00
2018-03-23T13:29:19.635Z,72.40
2018-03-23T13:31:47.944Z,72.50
2018-03-23T13:34:16.240Z,72.40
2018-03-23T13:36:44.556Z,72.40
2018-03-23T13:39:12.849Z,72.80
2018-03-23T13:41:41.163Z,73.00
2018-03-23T13:44:09.456Z,72.70
2018-03-23T13:46:37.792Z,72.50
2018-03-23T13:49:06.079Z,71.80
2018-03-23T13:51:34.376Z,72.10
2018-03-23T13:54:02.689Z,72.80
2018-03-23T13:56:30.987Z,73.80
2018-03-23T13:59:05.011Z,74.00
2018-03-23T14:01:38.981Z,73.70
2018-03-23T14:04:07.292Z,74.00
2018-03-23T14:06:35.587Z,73.40
2018-03-23T14:09:03.905Z,73.40
2018-03-23T14:11:32.255Z,73.80
2018-03-23T14:14:00.551Z,74.30
2018-03-23T14:16:28.848Z,74.20
2018-03-23T14:18:57.740Z,74.50
2018-03-23T14:21:26.036Z,74.70
2018-03-23T14:23:54.352Z,74.80
2018-03-23T14:26:22.650Z,75.10
2018-03-23T14:28:51.027Z,75.40
2018-03-23T14:31:19.292Z,75.90
2018-03-23T14:33:47.620Z,76.50
2018-03-23T14:36:15.923Z,76.80
2018-03-23T14:38:44.241Z,76.00
2018-03-23T14:41:12.559Z,76.10
2018-03-23T14:43:40.876Z,76.50
2018-03-23T14:46:09.173Z,76.70
2018-03-23T14:48:37.493Z,77.90
2018-03-23T14:51:05.797Z,77.20
2018-03-23T14:53:34.132Z,77.90
2018-03-23T14:56:02.432Z,78.60
2018-03-23T14:58:36.467Z,78.40
2018-03-23T15:01:04.764Z,78.70
2018-03-23T15:03:33.080Z,79.10
2018-03-23T15:06:01.372Z,80.40
2018-03-23T15:08:29.680Z,79.70
2018-03-23T15:10:57.977Z,81.20
2018-03-23T15:13:26.296Z,80.40
2018-03-23T15:15:54.579Z,80.30
2018-03-23T15:18:22.897Z,80.40
2018-03-23T15:20:51.188Z,80.60
2018-03-23T15:23:19.505Z,81.00
2018-03-23T15:25:47.800Z,80.90
2018-03-23T15:28:16.121Z,80.90
2018-03-23T15:30:44.420Z,81.00
2018-03-23T15:33:11.972Z,80.90
2018-03-23T15:35:40.271Z,80.80
2018-03-23T15:38:08.598Z,81.10
2018-03-23T15:40:36.892Z,80.70
2018-03-23T15:43:05.208Z,80.80
2018-03-23T15:45:33.500Z,80.60
2018-03-23T15:48:01.799Z,81.10
2018-03-23T15:50:30.116Z,81.30
2018-03-23T15:52:58.404Z,81.20
2018-03-23T15:55:26.712Z,80.80
2018-03-23T15:57:55.008Z,80.90
2018-03-23T16:00:23.329Z,80.90
2018-03-23T16:02:51.628Z,80.40
2018-03-23T16:05:19.958Z,80.00
2018-03-23T16:07:48.268Z,79.50
2018-03-23T16:10:16.580Z,79.40
2018-03-23T16:12:44.873Z,78.80
2018-03-23T16:15:13.194Z,78.50
2018-03-23T16:17:41.483Z,78.40
2018-03-23T16:20:09.811Z,78.00
2018-03-23T16:22:38.092Z,77.30
2018-03-23T16:25:06.405Z,76.90
2018-03-23T16:27:34.697Z,76.30
2018-03-23T16:30:03.018Z,75.70
2018-03-23T16:32:31.313Z,75.30
2018-03-23T16:34:59.638Z,75.10
2018-03-23T16:37:27.928Z,75.00
2018-03-23T16:39:56.244Z,74.20
2018-03-23T16:42:24.536Z,74.30
2018-03-23T16:44:52.859Z,74.40
2018-03-23T16:47:21.149Z,74.70
2018-03-23T16:49:49.477Z,74.90
2018-03-23T16:52:17.006Z,74.90
2018-03-23T16:54:45.316Z,75.20
2018-03-23T16:57:13.616Z,75.30
2018-03-23T16:59:41.928Z,75.30
2018-03-23T17:02:10.229Z,75.40
2018-03-23T17:04:38.561Z,75.70
2018-03-23T17:07:06.856Z,76.00
2018-03-23T17:09:35.168Z,76.20
2018-03-23T17:12:03.469Z,76.50
2018-03-23T17:14:31.784Z,76.30
2018-03-23T17:17:00.081Z,76.30
2018-03-23T17:19:28.401Z,76.20
2018-03-23T17:21:56.691Z,76.60
2018-03-23T17:24:25.040Z,76.60
2018-03-23T17:26:53.333Z,76.50
2018-03-23T17:29:21.676Z,76.30
2018-03-23T17:31:49.973Z,76.50
2018-03-23T17:34:18.268Z,76.60
2018-03-23T17:36:46.598Z,76.80
2018-03-23T17:39:14.904Z,76.90
2018-03-23T17:41:43.224Z,77.00
2018-03-23T17:44:11.520Z,77.30
2018-03-23T17:46:39.067Z,77.30
2018-03-23T17:49:07.367Z,77.90
2018-03-23T17:51:47.976Z,78.20
2018-03-23T17:54:16.518Z,78.40
2018-03-23T17:56:44.836Z,78.90
2018-03-23T17:59:13.127Z,79.00
2018-03-23T18:01:41.441Z,79.50
2018-03-23T18:04:09.728Z,79.70
2018-03-23T18:06:38.044Z,79.90
2018-03-23T18:09:06.328Z,80.10
2018-03-23T18:11:34.643Z,80.40
2018-03-23T18:14:02.929Z,80.50
2018-03-23T18:16:31.240Z,80.40
2018-03-23T18:19:00.506Z,80.50
2018-03-23T18:21:28.820Z,80.40
2018-03-23T18:23:57.116Z,80.30
2018-03-23T18:26:25.446Z,80.40
2018-03-23T18:28:53.849Z,80.50
2018-03-23T18:31:22.166Z,80.40
2018-03-23T18:33:50.460Z,80.20
2018-03-23T18:36:18.824Z,80.00
2018-03-23T18:38:47.155Z,79.60
2018-03-23T18:41:15.516Z,79.40
2018-03-23T18:43:43.812Z,79.40
2018-03-23T18:46:12.124Z,79.40
2018-03-23T18:48:40.673Z,79.40
2018-03-23T18:51:09.036Z,80.10
2018-03-23T18:53:37.341Z,79.20
2018-03-23T18:56:05.666Z,79.10
2018-03-23T18:58:33.965Z,79.00
2018-03-23T19:01:02.285Z,78.90
2018-03-23T19:03:30.588Z,78.80
2018-03-23T19:05:58.900Z,78.70
2018-03-23T19:08:27.242Z,78.70
2018-03-23T19:10:55.544Z,78.60
2018-03-23T19:13:23.833Z,78.60
2018-03-23T19:15:52.141Z,78.60
2018-03-23T19:18:20.439Z,78.70
2018-03-23T19:20:48.755Z,78.60
2018-03-23T19:23:17.061Z,78.40
2018-03-23T19:25:45.348Z,78.30
2018-03-23T19:28:13.664Z,78.30
2018-03-23T19:30:41.952Z,78.20
2018-03-23T19:33:10.261Z,78.20
2018-03-23T19:35:38.556Z,78.30
2018-03-23T19:38:06.864Z,78.30
2018-03-23T19:40:35.157Z,78.20
2018-03-23T19:43:03.468Z,78.10
2018-03-23T19:45:31.768Z,78.00
2018-03-23T19:48:00.085Z,78.00
2018-03-23T19:50:27.608Z,78.00
2018-03-23T19:52:55.924Z,77.90
2018-03-23T19:55:24.215Z,77.80
2018-03-23T19:57:52.529Z,77.80
2018-03-23T20:00:20.827Z,77.70
2018-03-23T20:02:49.196Z,77.50
2018-03-23T20:05:17.443Z,77.50
2018-03-23T20:07:45.758Z,77.50
2018-03-23T20:10:14.048Z,77.20
2018-03-23T20:12:41.640Z,77.30
2018-03-23T20:15:09.905Z,77.00
2018-03-23T20:17:43.874Z,76.90
2018-03-23T20:20:17.796Z,76.90
2018-03-23T20:22:45.340Z,76.90
2018-03-23T20:25:13.620Z,76.50
2018-03-23T20:27:47.641Z,76.50
2018-03-23T20:30:15.927Z,76.60
2018-03-23T20:32:44.240Z,76.50
2018-03-23T20:35:12.545Z,76.60
2018-03-23T20:37:40.862Z,76.50
2018-03-23T20:40:09.152Z,76.50
2018-03-23T20:42:37.469Z,76.50
2018-03-23T20:45:05.765Z,76.50
2018-03-23T20:47:34.070Z,76.60
2018-03-23T20:50:02.360Z,76.70
2018-03-23T20:52:30.673Z,76.90
2018-03-23T20:54:58.970Z,77.00
2018-03-23T20:57:27.289Z,77.00
2018-03-23T20:59:55.580Z,77.00
2018-03-23T21:02:23.888Z,77.10
2018-03-23T21:04:52.191Z,77.00
2018-03-23T21:07:20.505Z,77.00
2018-03-23T21:09:48.798Z,76.90
2018-03-23T21:12:17.109Z,76.90
2018-03-23T21:14:45.416Z,76.90
2018-03-23T21:17:13.704Z,76.90
2018-03-23T21:19:42.078Z,76.90
2018-03-23T21:22:10.574Z,77.00
2018-03-23T21:24:38.985Z,77.00
2018-03-23T21:27:07.399Z,77.00
2018-03-23T21:29:35.806Z,77.10
2018-03-23T21:32:04.215Z,77.20
2018-03-23T21:34:32.523Z,77.60
2018-03-23T21:37:00.808Z,77.70
2018-03-23T21:39:29.156Z,77.70
2018-03-23T21:41:57.457Z,77.90
2018-03-23T21:44:25.776Z,78.20
2018-03-23T21:46:54.073Z,78.30
2018-03-23T21:49:22.408Z,79.80
2018-03-23T21:51:50.704Z,78.90
2018-03-23T21:54:19.023Z,79.20
2018-03-23T21:56:47.317Z,79.70
2018-03-23T21:59:15.624Z,80.20
2018-03-23T22:01:43.912Z,80.30
2018-03-23T22:04:12.224Z,80.60
2018-03-23T22:06:40.537Z,80.90
2018-03-23T22:09:08.853Z,81.30
2018-03-23T22:11:37.159Z,81.00
2018-03-23T22:14:05.492Z,81.70
2018-03-23T22:16:33.786Z,81.90
2018-03-23T22:19:02.097Z,82.20
2018-03-23T22:21:30.379Z,82.20
2018-03-23T22:23:58.693Z,83.30
2018-03-23T22:26:26.993Z,82.20
2018-03-23T22:28:55.310Z,82.30
2018-03-23T22:31:23.605Z,82.30
2018-03-23T22:33:51.180Z,82.30
2018-03-23T22:36:19.473Z,82.30
2018-03-23T22:38:47.780Z,82.20
2018-03-23T22:41:16.067Z,82.30
2018-03-23T22:43:44.388Z,82.20
2018-03-23T22:46:11.913Z,82.20
2018-03-23T22:48:40.227Z,82.30
2018-03-23T22:51:08.521Z,82.40
2018-03-23T22:53:36.833Z,82.50
2018-03-23T22:56:05.159Z,82.60
2018-03-23T22:58:33.469Z,82.70
2018-03-23T23:01:01.794Z,82.50
2018-03-23T23:03:30.090Z,82.50
2018-03-23T23:05:58.403Z,82.50
2018-03-23T23:08:26.692Z,82.50
2018-03-23T23:10:55.005Z,82.40
2018-03-23T23:13:23.298Z,82.20
2018-03-23T23:15:51.612Z,82.40
2018-03-23T23:18:19.905Z,82.50
2018-03-23T23:20:48.224Z,82.70
2018-03-23T23:23:16.512Z,82.60
2018-03-23T23:25:44.820Z,82.60
2018-03-23T23:28:13.108Z,82.80
2018-03-23T23:30:41.479Z,82.80
2018-03-23T23:33:09.729Z,83.00
2018-03-23T23:35:38.036Z,83.10
2018-03-23T23:38:06.330Z,83.90
2018-03-23T23:40:34.635Z,83.10
2018-03-23T23:43:02.969Z,83.00
2018-03-23T23:45:31.289Z,83.00
2018-03-23T23:47:59.592Z,83.20
2018-03-23T23:50:27.920Z,83.10
2018-03-23T23:52:56.207Z,83.10
2018-03-23T23:55:24.525Z,83.10
2018-03-23T23:57:52.821Z,83.10
